Time;durP1;ratioP1;P1;durP2;ratioP2;P2;SDS_P1;SDS_P2;PMS_P1;PMS_P2;Temp;Humidity;BMP_temperature;BMP_pressure;BME280_temperature;BME280_humidity;BME280_pressure;Samples;Min_cycle;Max_cycle;Signal;HPM_P1;HPM_P2
2023/04/21 00:01:02;;;;;;;29.52;17.10;;;8.70;99.90;;;;;;5001035;28;20444;-83
2023/04/21 00:03:32;;;;;;;28.42;17.55;;;8.70;99.90;;;;;;5019617;28;20168;-82
2023/04/21 00:05:58;;;;;;;27.15;18.17;;;8.70;99.90;;;;;;5018329;28;20092;-82
2023/04/21 00:08:25;;;;;;;26.45;16.52;;;8.70;99.90;;;;;;5019270;28;20078;-82
2023/04/21 00:10:51;;;;;;;27.73;16.67;;;8.70;99.90;;;;;;5018625;28;20492;-83
2023/04/21 00:13:17;;;;;;;29.25;17.23;;;8.70;99.90;;;;;;5000515;28;20128;-83
2023/04/21 00:15:42;;;;;;;30.42;16.85;;;9.40;99.90;;;;;;5001403;28;20080;-82
2023/04/21 00:18:08;;;;;;;25.83;15.88;;;8.60;99.90;;;;;;5001167;28;20053;-83
2023/04/21 00:20:34;;;;;;;29.73;16.20;;;8.70;99.90;;;;;;5000328;28;20041;-82
2023/04/21 00:23:00;;;;;;;29.02;15.82;;;8.60;99.90;;;;;;5001403;28;20557;-82
2023/04/21 00:25:26;;;;;;;27.88;16.55;;;8.60;99.90;;;;;;5001525;28;20141;-82
2023/04/21 00:27:51;;;;;;;25.52;16.33;;;8.60;99.90;;;;;;5000682;28;20077;-83
2023/04/21 00:30:17;;;;;;;26.55;15.77;;;8.60;99.90;;;;;;5001312;28;20060;-83
2023/04/21 00:32:43;;;;;;;24.10;14.95;;;8.50;99.90;;;;;;5019326;28;20375;-82
2023/04/21 00:35:09;;;;;;;27.42;14.68;;;9.00;99.90;;;;;;5000299;28;20050;-82
2023/04/21 00:37:35;;;;;;;28.95;16.00;;;8.50;99.90;;;;;;5002831;28;20137;-83
2023/04/21 00:40:01;;;;;;;26.35;14.73;;;8.40;99.90;;;;;;5004858;28;20127;-83
2023/04/21 00:42:26;;;;;;;26.17;15.57;;;8.40;99.90;;;;;;5019014;28;20113;-84
2023/04/21 00:44:52;;;;;;;26.23;14.90;;;8.50;99.90;;;;;;5004545;28;20071;-82
2023/04/21 00:47:18;;;;;;;25.27;15.57;;;8.30;99.90;;;;;;5003687;28;20363;-82
2023/04/21 00:49:45;;;;;;;26.65;15.00;;;8.30;99.90;;;;;;5000975;28;20054;-82
2023/04/21 00:52:10;;;;;;;26.15;14.88;;;8.30;99.90;;;;;;5000934;28;20073;-82
2023/04/21 00:54:36;;;;;;;24.40;14.68;;;8.30;99.90;;;;;;5017849;28;20096;-82
2023/04/21 00:57:03;;;;;;;26.88;15.05;;;8.30;99.90;;;;;;5000784;28;20041;-82
2023/04/21 00:59:29;;;;;;;22.23;13.75;;;8.20;99.90;;;;;;5001037;28;20064;-83
2023/04/21 01:01:55;;;;;;;27.63;14.32;;;8.50;99.90;;;;;;5000366;28;20129;-82
2023/04/21 01:04:21;;;;;;;23.83;13.48;;;8.30;99.90;;;;;;5016391;28;20453;-82
2023/04/21 01:06:46;;;;;;;25.10;13.77;;;8.20;99.90;;;;;;4998190;28;20494;-82
2023/04/21 01:09:12;;;;;;;23.17;13.43;;;8.20;99.90;;;;;;4996972;28;20064;-82
2023/04/21 01:11:38;;;;;;;23.98;13.70;;;8.20;99.90;;;;;;5015785;28;20128;-82
2023/04/21 01:14:05;;;;;;;25.73;13.45;;;8.20;99.90;;;;;;5015170;28;20121;-83
2023/04/21 01:16:33;;;;;;;25.38;14.27;;;9.30;99.90;;;;;;5014481;28;20475;-82
2023/04/21 01:19:00;;;;;;;21.90;13.48;;;8.30;99.90;;;;;;5015202;28;20038;-82
2023/04/21 01:21:27;;;;;;;26.13;14.43;;;9.60;99.90;;;;;;4997472;28;20128;-82
2023/04/21 01:23:53;;;;;;;24.10;13.95;;;8.30;99.90;;;;;;4997031;28;20165;-82
2023/04/21 01:26:20;;;;;;;25.98;13.85;;;8.30;99.90;;;;;;4997151;28;20529;-82
2023/04/21 01:28:47;;;;;;;24.33;13.50;;;8.20;99.90;;;;;;4998037;28;20437;-82
2023/04/21 01:31:16;;;;;;;22.70;13.63;;;8.30;99.90;;;;;;4996339;28;20050;-82
2023/04/21 01:33:42;;;;;;;24.70;14.70;;;8.30;99.90;;;;;;4997583;28;20084;-83
2023/04/21 01:36:08;;;;;;;23.45;13.52;;;8.30;99.90;;;;;;4997107;28;20065;-83
2023/04/21 01:38:38;;;;;;;21.80;13.85;;;8.30;99.90;;;;;;5014272;28;20096;-82
2023/04/21 01:41:03;;;;;;;21.80;12.85;;;8.30;99.90;;;;;;4996938;28;20050;-83
2023/04/21 01:43:29;;;;;;;23.92;13.35;;;8.30;99.90;;;;;;5015066;28;20044;-82
2023/04/21 01:45:55;;;;;;;22.10;13.18;;;8.30;99.90;;;;;;5013489;28;20096;-82
2023/04/21 01:48:20;;;;;;;23.52;13.30;;;8.30;99.90;;;;;;4997268;28;20049;-82
2023/04/21 01:50:46;;;;;;;21.33;13.15;;;8.30;99.90;;;;;;4996105;28;20046;-82
2023/04/21 01:53:11;;;;;;;22.65;12.70;;;8.30;99.90;;;;;;5014466;28;20045;-82
2023/04/21 01:55:37;;;;;;;21.85;13.10;;;8.40;99.90;;;;;;4997284;28;20038;-82
2023/04/21 01:58:03;;;;;;;23.98;12.70;;;9.00;99.90;;;;;;5013706;28;20583;-83
2023/04/21 02:00:28;;;;;;;22.40;13.23;;;8.30;99.90;;;;;;5014749;28;20042;-82
2023/04/21 02:02:54;;;;;;;23.13;12.95;;;8.30;99.90;;;;;;4997148;28;20038;-82
2023/04/21 02:05:19;;;;;;;25.70;13.48;;;8.90;99.90;;;;;;5013416;28;20049;-82
2023/04/21 02:07:45;;;;;;;23.95;12.38;;;8.60;99.90;;;;;;5002173;28;20042;-82
2023/04/21 02:10:11;;;;;;;20.65;12.32;;;9.00;99.90;;;;;;4999442;28;20226;-82
2023/04/21 02:12:37;;;;;;;21.63;12.20;;;8.30;99.90;;;;;;4997355;28;20046;-83
2023/04/21 02:15:03;;;;;;;18.92;11.80;;;8.30;99.90;;;;;;5001754;28;20060;-83
2023/04/21 02:17:29;;;;;;;21.48;12.13;;;8.30;99.90;;;;;;4998067;28;20477;-82
2023/04/21 02:19:55;;;;;;;22.13;12.15;;;8.30;99.90;;;;;;4995527;28;20081;-82
2023/04/21 02:22:21;;;;;;;21.05;12.18;;;8.30;99.90;;;;;;5014090;28;20045;-82
2023/04/21 02:24:47;;;;;;;23.20;11.43;;;8.30;99.90;;;;;;5014203;28;20053;-83
2023/04/21 02:27:13;;;;;;;21.38;11.82;;;8.40;99.90;;;;;;5013249;28;20038;-83
2023/04/21 02:29:39;;;;;;;20.05;11.48;;;8.40;99.90;;;;;;5014107;28;20046;-83
2023/04/21 02:32:05;;;;;;;21.77;11.68;;;8.40;99.90;;;;;;4996352;28;20045;-82
2023/04/21 02:34:30;;;;;;;20.95;11.60;;;8.30;99.90;;;;;;4995292;28;20045;-82
2023/04/21 02:36:56;;;;;;;21.60;11.88;;;8.30;99.90;;;;;;5013301;28;20042;-82
2023/04/21 02:39:22;;;;;;;22.27;11.73;;;8.30;99.90;;;;;;4996410;28;20061;-82
2023/04/21 02:41:47;;;;;;;19.35;11.70;;;8.30;99.90;;;;;;5013183;28;20046;-83
2023/04/21 02:44:13;;;;;;;19.75;11.75;;;9.20;99.90;;;;;;4996000;28;20054;-83
2023/04/21 02:46:40;;;;;;;22.15;11.82;;;8.30;99.90;;;;;;4996039;28;20110;-83
2023/04/21 02:49:06;;;;;;;18.45;11.35;;;8.30;99.90;;;;;;5012675;28;20046;-82
2023/04/21 02:51:31;;;;;;;19.13;11.32;;;8.20;99.90;;;;;;4995900;28;20387;-83
2023/04/21 02:53:57;;;;;;;21.08;11.75;;;8.20;99.90;;;;;;4995725;28;20038;-83
2023/04/21 02:56:22;;;;;;;21.92;12.07;;;8.20;99.90;;;;;;5013000;28;20041;-83
2023/04/21 02:58:48;;;;;;;20.27;11.63;;;8.20;99.90;;;;;;4996060;28;20095;-83
2023/04/21 03:01:14;;;;;;;22.50;12.23;;;8.20;99.90;;;;;;4994798;28;20520;-83
2023/04/21 03:03:39;;;;;;;20.88;11.18;;;8.20;99.90;;;;;;4995905;28;20061;-83
2023/04/21 03:06:05;;;;;;;21.45;11.77;;;8.20;99.90;;;;;;4995477;28;20034;-83
2023/04/21 03:08:31;;;;;;;20.17;11.57;;;8.20;99.90;;;;;;5012653;28;20050;-83
2023/04/21 03:10:58;;;;;;;22.27;12.25;;;9.00;99.90;;;;;;4995241;28;20417;-83
2023/04/21 03:13:23;;;;;;;20.25;12.45;;;8.10;99.90;;;;;;4995856;28;20053;-83
2023/04/21 03:15:49;;;;;;;20.27;11.95;;;8.10;99.90;;;;;;5012525;28;20044;-83
2023/04/21 03:18:16;;;;;;;23.02;12.40;;;8.10;99.90;;;;;;4995239;28;20495;-83
2023/04/21 03:20:42;;;;;;;22.05;12.10;;;8.10;99.90;;;;;;4995415;28;20045;-83
2023/04/21 03:23:08;;;;;;;18.58;11.77;;;8.10;99.90;;;;;;5012209;28;20049;-83
2023/04/21 03:25:33;;;;;;;18.63;11.65;;;8.00;99.90;;;;;;5013268;28;20049;-83
2023/04/21 03:28:00;;;;;;;22.42;12.00;;;8.00;99.90;;;;;;4995024;28;20041;-83
2023/04/21 03:30:26;;;;;;;22.10;11.98;;;8.00;99.90;;;;;;4994936;28;20386;-84
2023/04/21 03:32:51;;;;;;;19.30;11.80;;;8.00;99.90;;;;;;4995690;28;20045;-83
2023/04/21 03:35:17;;;;;;;21.42;12.07;;;9.30;99.90;;;;;;4995742;28;20041;-83
2023/04/21 03:37:43;;;;;;;23.20;12.55;;;8.70;99.90;;;;;;4999964;28;20512;-83
2023/04/21 03:40:09;;;;;;;19.27;10.80;;;7.90;99.90;;;;;;4996421;28;20042;-83
2023/04/21 03:42:35;;;;;;;20.95;11.80;;;8.00;99.90;;;;;;4995471;28;20050;-83
2023/04/21 03:45:05;;;;;;;20.75;11.80;;;8.00;99.90;;;;;;5017383;28;20064;-83
2023/04/21 03:47:31;;;;;;;20.10;11.88;;;8.00;99.90;;;;;;4977942;28;20494;-83
2023/04/21 03:49:57;;;;;;;22.33;11.60;;;8.00;99.90;;;;;;4975459;28;20134;-83
2023/04/21 03:52:22;;;;;;;22.85;11.85;;;8.10;99.90;;;;;;4993463;28;20046;-83
2023/04/21 03:54:49;;;;;;;22.13;12.07;;;8.00;99.90;;;;;;5012770;28;20442;-83
2023/04/21 03:57:15;;;;;;;21.90;11.88;;;8.10;99.90;;;;;;5012236;28;20117;-83
2023/04/21 03:59:41;;;;;;;23.90;11.80;;;8.10;99.90;;;;;;5012207;28;20468;-83
2023/04/21 04:02:06;;;;;;;22.50;11.77;;;8.10;99.90;;;;;;5012183;28;20117;-83
2023/04/21 04:04:32;;;;;;;21.70;11.75;;;8.00;99.90;;;;;;5011392;28;20130;-83
2023/04/21 04:06:58;;;;;;;18.92;11.45;;;8.10;99.90;;;;;;5011614;28;20084;-83
2023/04/21 04:09:24;;;;;;;22.92;12.45;;;8.00;99.90;;;;;;5012394;28;20081;-83
2023/04/21 04:11:49;;;;;;;20.17;11.35;;;7.90;99.90;;;;;;5011844;28;20034;-83
2023/04/21 04:14:15;;;;;;;19.63;11.63;;;7.80;99.90;;;;;;4995183;28;20060;-83
2023/04/21 04:16:41;;;;;;;23.77;11.80;;;7.80;99.90;;;;;;5012419;28;20034;-83
2023/04/21 04:19:07;;;;;;;21.00;12.35;;;7.70;99.90;;;;;;4993618;28;20074;-83
2023/04/21 04:21:33;;;;;;;21.40;11.70;;;7.70;99.90;;;;;;5012644;28;20124;-83
2023/04/21 04:23:59;;;;;;;19.40;11.63;;;8.50;99.90;;;;;;5012371;28;20116;-83
2023/04/21 04:26:25;;;;;;;21.13;12.80;;;8.20;99.90;;;;;;4994398;28;20052;-83
2023/04/21 04:28:55;;;;;;;21.98;11.82;;;7.50;99.90;;;;;;4994992;28;20092;-83
2023/04/21 04:31:24;;;;;;;20.90;12.27;;;7.40;99.90;;;;;;5012466;28;20041;-83
2023/04/21 04:33:52;;;;;;;20.80;12.50;;;7.40;99.90;;;;;;4994276;28;20042;-83
2023/04/21 04:36:18;;;;;;;21.63;12.40;;;7.40;99.90;;;;;;4994690;28;20076;-83
2023/04/21 04:38:44;;;;;;;22.15;12.77;;;7.40;99.90;;;;;;4994601;28;20474;-83
2023/04/21 04:41:11;;;;;;;21.40;12.95;;;7.40;99.90;;;;;;4996716;28;20048;-83
2023/04/21 04:43:38;;;;;;;24.27;12.43;;;7.40;99.90;;;;;;4998521;28;20057;-83
2023/04/21 04:46:04;;;;;;;20.92;11.60;;;7.40;99.90;;;;;;5015513;28;20053;-83
2023/04/21 04:48:30;;;;;;;21.50;11.82;;;7.40;99.90;;;;;;4997818;28;20046;-83
2023/04/21 04:50:56;;;;;;;19.88;11.50;;;7.40;99.90;;;;;;4998284;28;20041;-83
2023/04/21 04:53:21;;;;;;;22.70;12.18;;;7.40;99.90;;;;;;4998470;28;20139;-83
2023/04/21 04:55:47;;;;;;;21.08;11.55;;;7.40;99.90;;;;;;4997539;28;20038;-83
2023/04/21 04:58:14;;;;;;;20.77;12.10;;;7.40;99.90;;;;;;4997727;28;20064;-83
2023/04/21 05:00:40;;;;;;;19.88;12.00;;;7.50;99.90;;;;;;4997458;28;20053;-83
2023/04/21 05:03:05;;;;;;;22.00;11.43;;;7.50;99.90;;;;;;4997877;28;20042;-83
2023/04/21 05:05:31;;;;;;;18.60;11.40;;;7.50;99.90;;;;;;5015735;28;20038;-83
2023/04/21 05:07:57;;;;;;;20.17;11.20;;;7.50;99.90;;;;;;5005405;28;20046;-83
2023/04/21 05:10:23;;;;;;;21.47;11.37;;;8.10;99.90;;;;;;5016525;28;20100;-83
2023/04/21 05:12:48;;;;;;;20.97;11.67;;;7.60;99.90;;;;;;4998036;28;20041;-83
2023/04/21 05:15:15;;;;;;;21.67;11.43;;;7.60;99.90;;;;;;5001990;28;20057;-83
2023/04/21 05:17:41;;;;;;;22.80;11.48;;;7.70;99.90;;;;;;5015600;28;20512;-84
2023/04/21 05:20:07;;;;;;;22.20;11.50;;;7.80;99.90;;;;;;4997367;28;20046;-83
2023/04/21 05:22:40;;;;;;;19.92;11.52;;;7.80;99.90;;;;;;5014140;28;20045;-83
2023/04/21 05:25:06;;;;;;;22.25;11.25;;;7.90;99.90;;;;;;5015118;28;20096;-83
2023/04/21 05:27:35;;;;;;;20.50;11.18;;;8.00;99.90;;;;;;5015087;28;20497;-83
2023/04/21 05:30:01;;;;;;;20.45;11.40;;;8.00;99.90;;;;;;4996610;28;20038;-84
2023/04/21 05:32:26;;;;;;;23.83;11.30;;;8.10;99.90;;;;;;5015113;28;20402;-84
2023/04/21 05:34:52;;;;;;;20.08;10.45;;;8.20;99.90;;;;;;4997322;28;20038;-84
2023/04/21 05:37:17;;;;;;;17.23;10.73;;;8.20;99.90;;;;;;5013938;28;20145;-84
2023/04/21 05:39:43;;;;;;;17.63;10.88;;;8.30;99.90;;;;;;4997648;28;20053;-83
2023/04/21 05:42:10;;;;;;;20.05;10.82;;;8.90;99.90;;;;;;5014817;28;20045;-83
2023/04/21 05:44:36;;;;;;;17.67;10.20;;;8.40;99.90;;;;;;4993196;28;20141;-84
2023/04/21 05:47:03;;;;;;;20.13;10.70;;;8.40;99.90;;;;;;4993252;28;20046;-84
2023/04/21 05:49:29;;;;;;;19.70;10.80;;;8.50;99.90;;;;;;4995330;28;20483;-84
2023/04/21 05:51:55;;;;;;;19.95;10.27;;;8.50;99.90;;;;;;4993493;28;20046;-84
2023/04/21 05:54:20;;;;;;;18.77;10.20;;;8.60;99.90;;;;;;4995351;28;20372;-84
2023/04/21 05:56:47;;;;;;;17.73;10.35;;;8.70;99.90;;;;;;4974433;28;20051;-83
2023/04/21 05:59:13;;;;;;;19.45;10.65;;;8.70;99.90;;;;;;4973872;28;20051;-84
2023/04/21 06:01:38;;;;;;;17.88;9.95;;;8.30;99.90;;;;;;4975896;28;20055;-84
2023/04/21 06:04:04;;;;;;;17.45;10.05;;;10.10;99.90;;;;;;4973294;28;20093;-83
2023/04/21 06:06:30;;;;;;;19.48;10.82;;;8.90;99.90;;;;;;4974541;28;20125;-84
2023/04/21 06:08:56;;;;;;;19.75;10.25;;;9.30;99.90;;;;;;4973743;28;20051;-82
2023/04/21 06:11:22;;;;;;;20.23;10.50;;;9.00;99.90;;;;;;4973443;28;20129;-83
2023/04/21 06:13:48;;;;;;;17.35;10.60;;;9.10;99.90;;;;;;4974545;28;20053;-84
2023/04/21 06:16:14;;;;;;;17.65;9.63;;;9.10;99.90;;;;;;4975399;28;20035;-84
2023/04/21 06:18:39;;;;;;;19.30;10.57;;;9.30;99.90;;;;;;4973393;28;20050;-82
2023/04/21 06:21:05;;;;;;;20.70;10.45;;;9.30;99.90;;;;;;4973498;28;20047;-82
2023/04/21 06:23:31;;;;;;;18.33;9.90;;;9.40;99.90;;;;;;4975183;28;20045;-82
2023/04/21 06:26:05;;;;;;;19.13;9.70;;;9.60;99.90;;;;;;4973514;28;20136;-82
2023/04/21 06:28:32;;;;;;;16.45;9.63;;;9.80;99.90;;;;;;4975388;28;20058;-82
2023/04/21 06:30:59;;;;;;;18.40;10.10;;;9.80;99.90;;;;;;4973095;28;20043;-82
2023/04/21 06:33:25;;;;;;;16.08;9.38;;;9.80;99.90;;;;;;4973276;28;20042;-82
2023/04/21 06:35:52;;;;;;;17.02;9.52;;;10.00;99.90;;;;;;4976360;28;20067;-83
2023/04/21 06:38:17;;;;;;;17.67;9.35;;;10.10;99.90;;;;;;4993390;28;20049;-83
2023/04/21 06:40:45;;;;;;;16.98;9.98;;;10.20;99.90;;;;;;4974706;28;20466;-80
2023/04/21 06:43:10;;;;;;;15.65;8.77;;;10.30;99.90;;;;;;4974372;28;20102;-82
2023/04/21 06:45:36;;;;;;;16.75;9.45;;;10.40;99.90;;;;;;5001078;28;20046;-83
2023/04/21 06:48:05;;;;;;;21.33;9.32;;;10.50;99.90;;;;;;4996532;28;20067;-82
2023/04/21 06:50:30;;;;;;;15.80;9.65;;;10.60;99.90;;;;;;4993961;28;20047;-82
2023/04/21 06:52:56;;;;;;;19.27;8.90;;;10.80;99.90;;;;;;4993678;28;20050;-82
2023/04/21 06:55:21;;;;;;;17.17;9.63;;;10.80;99.90;;;;;;4991868;28;20058;-82
2023/04/21 06:57:47;;;;;;;18.23;9.52;;;10.80;99.90;;;;;;4992455;28;20050;-82
2023/04/21 07:00:13;;;;;;;15.85;9.00;;;10.90;99.90;;;;;;4991191;28;20070;-82
2023/04/21 07:02:40;;;;;;;17.65;9.55;;;11.00;99.90;;;;;;4993008;28;20053;-82
2023/04/21 07:05:06;;;;;;;16.35;9.73;;;11.10;99.90;;;;;;4991803;28;20042;-82
2023/04/21 07:07:32;;;;;;;17.80;9.30;;;11.10;99.90;;;;;;4992609;28;20221;-81
2023/04/21 07:09:57;;;;;;;18.33;9.40;;;11.20;99.90;;;;;;4993487;28;20193;-82
2023/04/21 07:12:23;;;;;;;18.63;9.10;;;11.30;99.90;;;;;;4992238;28;20038;-82
2023/04/21 07:14:49;;;;;;;15.52;8.93;;;12.10;99.90;;;;;;4991867;28;20442;-83
2023/04/21 07:17:15;;;;;;;18.25;9.52;;;12.40;99.90;;;;;;4993058;28;20042;-81
2023/04/21 07:19:40;;;;;;;16.95;9.20;;;11.40;99.90;;;;;;4993513;28;20086;-81
2023/04/21 07:22:06;;;;;;;20.65;9.60;;;11.40;99.90;;;;;;4990861;28;20066;-82
2023/04/21 07:24:33;;;;;;;17.92;9.18;;;12.20;99.90;;;;;;4993684;28;20050;-83
2023/04/21 07:26:58;;;;;;;18.00;8.95;;;11.50;99.90;;;;;;4993403;28;20042;-84
2023/04/21 07:29:25;;;;;;;17.60;9.20;;;11.60;99.90;;;;;;4991454;28;20052;-84
2023/04/21 07:31:54;;;;;;;23.17;9.73;;;11.60;99.90;;;;;;4993766;28;20045;-84
2023/04/21 07:34:20;;;;;;;16.70;9.30;;;11.60;99.90;;;;;;4993733;28;20105;-83
2023/04/21 07:36:46;;;;;;;19.40;9.82;;;11.60;99.90;;;;;;4992323;28;20042;-83
2023/04/21 07:39:29;;;;;;;;;;;12.10;99.90;;;;;;4992164;28;20118;-84
2023/04/21 07:42:07;;;;;;;17.77;9.60;;;13.10;99.90;;;;;;4991922;28;19978;-83
2023/04/21 07:44:33;;;;;;;17.42;9.35;;;11.90;99.90;;;;;;4998285;28;20065;-84
2023/04/21 07:47:05;;;;;;;16.50;9.40;;;13.30;99.90;;;;;;5012662;28;20045;-82
2023/04/21 07:49:30;;;;;;;14.85;9.05;;;12.80;99.90;;;;;;4994747;28;20558;-81
2023/04/21 07:52:11;;;;;;;16.90;9.23;;;12.80;99.90;;;;;;4995706;28;20120;-81
2023/04/21 07:54:36;;;;;;;17.92;9.77;;;12.30;99.90;;;;;;5012716;28;20034;-81
2023/04/21 07:57:02;;;;;;;15.52;9.40;;;13.50;99.90;;;;;;5012249;28;20516;-81
2023/04/21 07:59:47;;;;;;;15.55;9.48;;;13.70;99.90;;;;;;4994998;28;20061;-82
2023/04/21 08:02:12;;;;;;;16.90;9.20;;;12.60;99.90;;;;;;4995215;28;20052;-82
2023/04/21 08:04:52;;;;;;;17.05;9.30;;;14.00;99.90;;;;;;4998638;28;20121;-82
2023/04/21 08:07:18;;;;;;;17.05;9.27;;;13.20;99.90;;;;;;5004898;28;20074;-82
2023/04/21 08:09:43;;;;;;;18.35;9.45;;;13.80;99.90;;;;;;4976240;28;20375;-82
2023/04/21 08:12:28;;;;;;;15.05;9.10;;;14.40;99.90;;;;;;4983654;28;20129;-82
2023/04/21 08:14:53;;;;;;;17.75;9.50;;;13.70;99.90;;;;;;4996006;28;20058;-82
2023/04/21 08:17:19;;;;;;;16.85;9.05;;;13.70;99.90;;;;;;4979834;28;20104;-82
2023/04/21 08:20:04;;;;;;;18.48;9.18;;;14.30;99.90;;;;;;5012195;28;20410;-83
2023/04/21 08:22:30;;;;;;;15.43;9.07;;;13.60;99.90;;;;;;4988278;28;20049;-82
2023/04/21 08:24:55;;;;;;;18.50;9.43;;;15.00;99.90;;;;;;5015612;28;20823;-82
2023/04/21 08:27:21;;;;;;;15.68;9.13;;;13.70;99.90;;;;;;5016552;28;20042;-83
2023/04/21 08:29:48;;;;;;;16.85;9.35;;;14.70;99.90;;;;;;5016326;28;20034;-82
2023/04/21 08:32:14;;;;;;;17.17;9.40;;;14.00;99.90;;;;;;5015610;28;20092;-82
2023/04/21 08:34:40;;;;;;;17.95;9.63;;;13.80;99.90;;;;;;4998762;28;20478;-83
2023/04/21 08:37:05;;;;;;;18.83;9.50;;;14.30;99.90;;;;;;4998196;28;20117;-82
2023/04/21 08:39:31;;;;;;;16.20;8.60;;;15.00;99.90;;;;;;4997834;28;20050;-82
2023/04/21 08:41:58;;;;;;;16.48;9.00;;;14.20;99.90;;;;;;4998663;28;20050;-82
2023/04/21 08:44:23;;;;;;;15.40;8.98;;;14.20;99.90;;;;;;5016170;28;20054;-83
2023/04/21 08:46:50;;;;;;;18.73;9.98;;;14.80;99.90;;;;;;4997820;28;20062;-82
2023/04/21 08:49:18;;;;;;;19.02;9.25;;;14.40;99.90;;;;;;5015934;28;20046;-82
2023/04/21 08:51:45;;;;;;;20.02;9.60;;;14.90;99.90;;;;;;5016246;28;20046;-82
2023/04/21 08:54:10;;;;;;;15.50;9.35;;;14.70;99.90;;;;;;5014936;28;20046;-82
2023/04/21 08:56:37;;;;;;;17.08;8.90;;;14.80;99.90;;;;;;5016121;28;20045;-82
2023/04/21 08:59:03;;;;;;;16.17;9.18;;;14.90;99.90;;;;;;4998206;28;20145;-82
2023/04/21 09:01:29;;;;;;;18.35;9.00;;;14.90;99.90;;;;;;4997397;28;20137;-82
2023/04/21 09:04:15;;;;;;;18.85;9.05;;;15.80;99.90;;;;;;5015444;28;20088;-82
2023/04/21 09:06:45;;;;;;;17.75;9.50;;;15.10;99.90;;;;;;5016047;28;20130;-82
2023/04/21 09:09:10;;;;;;;15.45;8.60;;;15.20;99.90;;;;;;4996861;28;20490;-82
2023/04/21 09:11:36;;;;;;;15.75;8.65;;;16.10;99.90;;;;;;5015876;28;20044;-82
2023/04/21 09:14:01;;;;;;;15.93;8.98;;;15.40;99.90;;;;;;5014989;28;20053;-82
2023/04/21 09:16:34;;;;;;;17.25;8.85;;;15.50;99.90;;;;;;4997920;28;20041;-83
2023/04/21 09:19:00;;;;;;;18.30;9.30;;;15.70;99.90;;;;;;5014852;28;20553;-83
2023/04/21 09:21:30;;;;;;;17.10;9.40;;;15.80;99.90;;;;;;5014809;28;20134;-82
2023/04/21 09:23:56;;;;;;;17.75;9.38;;;15.70;99.90;;;;;;4997554;28;20057;-83
2023/04/21 09:26:22;;;;;;;15.75;9.77;;;16.00;99.90;;;;;;5014448;28;20042;-82
2023/04/21 09:28:49;;;;;;;15.85;9.48;;;15.70;99.90;;;;;;5000363;28;20042;-82
2023/04/21 09:31:20;;;;;;;15.73;9.27;;;16.10;99.90;;;;;;4994739;28;20048;-82
2023/04/21 09:33:46;;;;;;;15.80;8.93;;;15.70;99.90;;;;;;4997042;28;20049;-82
2023/04/21 09:36:26;;;;;;;19.10;8.90;;;15.70;99.90;;;;;;5013391;28;20048;-82
2023/04/21 09:39:03;;;;;;;16.95;9.15;;;16.00;99.90;;;;;;5016804;28;20489;-82
2023/04/21 09:41:30;;;;;;;16.92;9.43;;;16.00;99.90;;;;;;5014915;28;20054;-82
2023/04/21 09:44:00;;;;;;;15.32;8.43;;;16.30;99.90;;;;;;5014859;28;20521;-84
2023/04/21 09:46:27;;;;;;;16.70;8.52;;;16.40;99.90;;;;;;5003643;28;20053;-81
2023/04/21 09:48:55;;;;;;;17.60;9.07;;;16.60;99.90;;;;;;5015160;28;20052;-86
2023/04/21 09:51:23;;;;;;;14.98;8.95;;;16.80;99.90;;;;;;5014582;28;20095;-80
2023/04/21 09:53:52;;;;;;;16.73;9.27;;;16.90;99.90;;;;;;5006107;28;20047;-81
2023/04/21 09:56:23;;;;;;;16.17;8.85;;;16.90;99.90;;;;;;5007179;28;20056;-84
2023/04/21 09:58:53;;;;;;;17.25;8.93;;;17.00;99.90;;;;;;5014186;28;20042;-81
2023/04/21 10:01:19;;;;;;;18.73;9.43;;;17.60;99.90;;;;;;4996188;28;20100;-81
2023/04/21 10:03:47;;;;;;;16.83;9.10;;;17.10;99.90;;;;;;5012750;28;20520;-83
2023/04/21 10:06:14;;;;;;;17.05;9.45;;;17.60;99.90;;;;;;4995889;28;20053;-82
2023/04/21 10:08:40;;;;;;;16.52;9.57;;;17.40;99.90;;;;;;4996650;28;20038;-81
2023/04/21 10:11:06;;;;;;;19.40;9.40;;;17.20;99.90;;;;;;4995963;28;20441;-81
2023/04/21 10:13:34;;;;;;;16.67;9.50;;;16.90;99.90;;;;;;4996477;28;20137;-81
2023/04/21 10:16:02;;;;;;;16.17;9.07;;;16.90;99.90;;;;;;4997080;28;20053;-81
2023/04/21 10:18:28;;;;;;;16.60;9.15;;;18.10;99.90;;;;;;4993889;28;20149;-81
2023/04/21 10:21:00;;;;;;;15.20;9.18;;;17.60;99.90;;;;;;4995940;28;20038;-81
2023/04/21 10:23:35;;;;;;;16.02;8.50;;;17.30;99.90;;;;;;5008330;28;20038;-80
2023/04/21 10:26:07;;;;;;;18.15;9.02;;;18.30;99.90;;;;;;4982211;28;20097;-80
2023/04/21 10:28:40;;;;;;;17.88;9.35;;;18.30;99.90;;;;;;4979297;28;20426;-80
2023/04/21 10:31:43;;;;;;;16.55;8.75;;;18.60;99.90;;;;;;4994218;28;20045;-80
2023/04/21 10:34:12;;;;;;;15.68;9.05;;;18.70;99.90;;;;;;5011573;28;20042;-80
2023/04/21 10:36:53;;;;;;;16.65;9.23;;;18.90;99.90;;;;;;4993527;28;20143;-83
2023/04/21 10:39:34;;;;;;;14.25;9.05;;;19.00;99.90;;;;;;4994769;28;20057;-82
2023/04/21 10:42:27;;;;;;;17.17;8.85;;;19.00;99.90;;;;;;4995732;28;20085;-81
2023/04/21 10:44:56;;;;;;;15.68;9.13;;;18.60;99.90;;;;;;4992282;28;20053;-82
2023/04/21 10:47:39;;;;;;;14.98;8.75;;;18.40;99.90;;;;;;5013032;28;20054;-82
2023/04/21 10:50:14;;;;;;;15.95;8.80;;;18.60;99.90;;;;;;5013444;28;20053;-82
2023/04/21 10:52:43;;;;;;;15.93;8.45;;;18.80;99.90;;;;;;5012994;28;20100;-82
2023/04/21 10:55:12;;;;;;;15.27;8.32;;;19.90;99.90;;;;;;4996648;28;20100;-81
2023/04/21 10:57:41;;;;;;;16.15;7.95;;;19.40;99.90;;;;;;5013740;28;20050;-82
2023/04/21 11:00:07;;;;;;;16.40;7.80;;;19.70;99.90;;;;;;4994973;28;20048;-80
2023/04/21 11:02:34;;;;;;;15.68;7.78;;;19.80;99.90;;;;;;5013087;28;20540;-79
2023/04/21 11:05:00;;;;;;;13.80;7.78;;;20.00;99.90;;;;;;5012911;28;20030;-79
2023/04/21 11:07:26;;;;;;;13.73;7.80;;;20.30;99.90;;;;;;5014999;28;20053;-79
2023/04/21 11:10:07;;;;;;;16.63;8.30;;;20.20;99.90;;;;;;5013192;28;20042;-79
2023/04/21 11:12:38;;;;;;;17.90;7.75;;;20.10;99.90;;;;;;5010856;28;20406;-79
2023/04/21 11:15:06;;;;;;;15.50;7.03;;;20.20;99.90;;;;;;5013340;28;20091;-78
2023/04/21 11:17:32;;;;;;;17.92;7.30;;;20.30;99.80;;;;;;5013068;28;20494;-79
2023/04/21 11:19:58;;;;;;;15.43;6.68;;;20.30;99.90;;;;;;4995339;28;20042;-78
2023/04/21 11:22:25;;;;;;;15.43;7.03;;;20.20;99.90;;;;;;4994387;28;20440;-79
2023/04/21 11:24:55;;;;;;;21.65;7.25;;;20.10;99.90;;;;;;4995588;28;20042;-79
2023/04/21 11:27:22;;;;;;;14.63;7.22;;;19.90;99.40;;;;;;5012950;28;20038;-80
2023/04/21 11:29:49;;;;;;;12.68;6.28;;;19.90;99.90;;;;;;4982161;28;20050;-79
2023/04/21 11:32:15;;;;;;;14.60;6.68;;;20.50;99.90;;;;;;5009992;28;20080;-80
2023/04/21 11:34:41;;;;;;;13.05;6.45;;;19.90;99.50;;;;;;4994322;28;20466;-79
2023/04/21 11:37:08;;;;;;;12.30;6.05;;;20.20;99.50;;;;;;5012476;28;20045;-79
2023/04/21 11:39:34;;;;;;;16.10;6.70;;;20.40;99.40;;;;;;4994575;28;20053;-79
2023/04/21 11:42:00;;;;;;;13.73;6.20;;;20.30;98.80;;;;;;5010857;28;20406;-79
2023/04/21 11:44:37;;;;;;;15.00;6.25;;;20.70;99.00;;;;;;5011665;28;20053;-79
2023/04/21 11:47:13;;;;;;;16.33;6.10;;;20.00;98.10;;;;;;5012481;28;20056;-79
2023/04/21 11:49:50;;;;;;;14.48;6.07;;;20.00;98.50;;;;;;4993928;28;20034;-79
2023/04/21 11:52:22;;;;;;;11.10;5.30;;;20.50;97.70;;;;;;5012742;28;20046;-79
2023/04/21 11:54:54;;;;;;;15.60;5.70;;;20.40;97.90;;;;;;4994981;28;20698;-79
2023/04/21 11:57:22;;;;;;;14.93;6.55;;;20.40;97.50;;;;;;4994522;28;20056;-80
2023/04/21 11:59:47;;;;;;;13.15;5.40;;;20.30;98.00;;;;;;4994790;28;20052;-78
2023/04/21 12:02:24;;;;;;;11.85;5.25;;;20.10;97.70;;;;;;5011862;28;20038;-78
2023/04/21 12:05:04;;;;;;;11.75;5.65;;;20.00;97.50;;;;;;4993753;28;20057;-79
2023/04/21 12:07:40;;;;;;;12.98;5.18;;;19.70;98.10;;;;;;4992693;28;20450;-78
2023/04/21 12:10:20;;;;;;;12.50;5.32;;;19.80;97.20;;;;;;4991774;28;20569;-79
2023/04/21 12:12:46;;;;;;;12.05;5.28;;;19.70;97.00;;;;;;4992536;28;20053;-78
2023/04/21 12:15:19;;;;;;;12.32;5.60;;;19.60;97.80;;;;;;5011738;28;20394;-78
2023/04/21 12:17:52;;;;;;;11.85;5.47;;;19.30;97.40;;;;;;5008867;28;20052;-78
2023/04/21 12:20:19;;;;;;;11.60;5.38;;;19.50;97.50;;;;;;4993920;28;20486;-78
2023/04/21 12:22:46;;;;;;;14.32;5.53;;;19.20;97.90;;;;;;5011852;28;20034;-79
2023/04/21 12:25:12;;;;;;;12.68;5.65;;;19.30;98.00;;;;;;4993182;28;20508;-79
2023/04/21 12:27:56;;;;;;;14.77;5.72;;;19.10;98.00;;;;;;4994364;28;20056;-77
2023/04/21 12:30:22;;;;;;;13.18;5.30;;;19.10;97.50;;;;;;4994412;28;20053;-78
2023/04/21 12:32:48;;;;;;;12.95;5.10;;;19.10;97.90;;;;;;5011292;28;20145;-78
2023/04/21 12:35:13;;;;;;;15.05;4.72;;;19.20;97.80;;;;;;4993772;28;20398;-78
2023/04/21 12:37:39;;;;;;;10.55;5.15;;;19.30;97.90;;;;;;4997010;28;20049;-80
2023/04/21 12:40:06;;;;;;;12.35;5.00;;;19.50;97.80;;;;;;5287039;23;20039;-79